Time;durP1;ratioP1;P1;durP2;ratioP2;P2;SDS_P1;SDS_P2;PMS_P1;PMS_P2;Temp;Humidity;BMP_temperature;BMP_pressure;BME280_temperature;BME280_humidity;BME280_pressure;Samples;Min_cycle;Max_cycle;Signal;HPM_P1;HPM_P2
2022/10/24 00:01:42;;;;;;;3.42;3.13;;;;;;;14.72;100.00;100161.34;10380414;28;20065;-79
2022/10/24 00:06:43;;;;;;;4.47;3.33;;;;;;;14.81;100.00;100153.63;10379242;28;20042;-78
2022/10/24 00:11:43;;;;;;;9.98;4.13;;;;;;;14.99;100.00;100160.75;10379018;28;20026;-79
2022/10/24 00:16:43;;;;;;;7.15;4.05;;;;;;;15.09;100.00;100142.69;10375978;28;20038;-79
2022/10/24 00:21:44;;;;;;;7.03;3.15;;;;;;;15.21;100.00;100139.06;10377991;28;20062;-77
2022/10/24 00:26:44;;;;;;;9.02;2.42;;;;;;;15.28;100.00;100145.16;10359708;28;20116;-78
2022/10/24 00:31:45;;;;;;;5.97;3.15;;;;;;;15.43;100.00;100134.53;10375992;28;20037;-78
2022/10/24 00:36:45;;;;;;;5.97;2.45;;;;;;;15.58;100.00;100134.75;10375899;28;20095;-77
2022/10/24 00:41:45;;;;;;;9.27;3.30;;;;;;;15.73;100.00;100130.63;10375565;28;20457;-77
2022/10/24 00:47:07;;;;;;;4.28;2.78;;;;;;;15.84;100.00;100123.44;10374727;28;20160;-77
2022/10/24 00:52:07;;;;;;;5.55;2.80;;;;;;;15.88;100.00;100119.94;10376151;28;20034;-77
2022/10/24 00:57:13;;;;;;;16.85;3.45;;;;;;;15.87;100.00;100112.00;10358336;28;20065;-77
2022/10/24 01:02:14;;;;;;;12.65;3.28;;;;;;;15.87;100.00;100110.09;10374921;28;20448;-77
2022/10/24 01:07:22;;;;;;;2.45;2.25;;;;;;;15.90;100.00;100108.78;10374739;28;20038;-77
2022/10/24 01:12:27;;;;;;;8.88;2.72;;;;;;;16.03;100.00;100114.69;10360129;28;20488;-77
2022/10/24 01:17:36;;;;;;;8.02;2.90;;;;;;;16.17;100.00;100106.94;10359521;28;20045;-77
2022/10/24 01:23:15;;;;;;;2.15;2.00;;;;;;;16.30;100.00;100105.72;10375858;28;20030;-77
2022/10/24 01:28:38;;;;;;;2.53;2.13;;;;;;;16.41;100.00;100098.50;10374454;28;20044;-77
2022/10/24 01:33:41;;;;;;;6.13;1.80;;;;;;;16.52;100.00;100087.41;10355542;28;20046;-77
2022/10/24 01:38:45;;;;;;;11.90;2.95;;;;;;;16.26;100.00;100083.56;10358489;28;20076;-78
2022/10/24 01:44:05;;;;;;;6.50;2.10;;;;;;;16.09;100.00;100090.19;10357373;28;20044;-77
2022/10/24 01:49:12;;;;;;;10.27;2.38;;;;;;;15.92;100.00;100080.16;10373297;28;20485;-78
2022/10/24 01:54:13;;;;;;;;;;;;;;;15.89;100.00;100075.19;10362028;28;20496;-77
2022/10/24 01:59:27;;;;;;;2.13;1.77;;;;;;;15.77;100.00;100072.56;10390446;28;19917;-77
2022/10/24 02:04:28;;;;;;;3.20;1.98;;;;;;;15.81;100.00;100056.50;10374572;28;20280;-77
2022/10/24 02:09:28;;;;;;;12.82;2.75;;;;;;;15.70;100.00;100085.59;10357123;28;20025;-77
2022/10/24 02:14:38;;;;;;;6.40;3.00;;;;;;;15.70;100.00;100054.72;10357517;28;20053;-76
2022/10/24 02:19:38;;;;;;;4.82;1.95;;;;;;;15.65;100.00;100060.09;10374197;28;20056;-77
2022/10/24 02:25:05;;;;;;;1.65;1.50;;;;;;;15.59;100.00;100076.38;10374831;28;20045;-77
2022/10/24 02:30:08;;;;;;;3.78;1.80;;;;;;;15.80;100.00;100065.78;10372431;28;20030;-77
2022/10/24 02:35:09;;;;;;;7.20;1.75;;;;;;;16.03;100.00;100065.53;10357055;28;20037;-77
2022/10/24 02:40:10;;;;;;;1.83;1.67;;;;;;;15.99;100.00;100069.88;10373393;28;20026;-77
2022/10/24 02:45:11;;;;;;;3.05;1.58;;;;;;;15.75;100.00;100068.44;10381294;28;20038;-77
2022/10/24 02:50:11;;;;;;;5.30;2.08;;;;;;;15.71;100.00;100070.84;10382146;28;20038;-77
2022/10/24 02:55:12;;;;;;;7.60;2.45;;;;;;;15.78;100.00;100070.66;10380111;28;20045;-77
2022/10/24 03:00:12;;;;;;;3.55;2.05;;;;;;;15.82;100.00;100058.16;10381123;28;20420;-77
2022/10/24 03:05:13;;;;;;;1.05;1.05;;;;;;;15.71;100.00;100065.38;10380012;28;20038;-77
2022/10/24 03:10:13;;;;;;;3.05;1.98;;;;;;;15.70;100.00;100062.94;10379282;28;20033;-76
2022/10/24 03:15:14;;;;;;;10.45;2.13;;;;;;;15.61;100.00;100053.47;10380514;28;20096;-77
2022/10/24 03:20:15;;;;;;;1.75;1.20;;;;;;;15.54;100.00;100048.19;10377896;28;20163;-76
2022/10/24 03:25:15;;;;;;;8.63;2.10;;;;;;;15.38;100.00;100051.75;10381284;28;20034;-77
2022/10/24 03:30:16;;;;;;;3.45;2.25;;;;;;;15.28;100.00;100041.53;10379802;28;20034;-77
2022/10/24 03:35:16;;;;;;;4.20;2.38;;;;;;;15.28;98.24;100056.00;10379224;28;20026;-76
2022/10/24 03:40:17;;;;;;;6.50;2.42;;;;;;;15.51;95.97;100052.25;10377742;28;20034;-76
2022/10/24 03:45:17;;;;;;;6.15;2.13;;;;;;;15.74;97.52;100061.34;10362001;28;20168;-77
2022/10/24 03:50:17;;;;;;;6.43;3.22;;;;;;;15.86;96.41;100064.78;10377691;28;20062;-77
2022/10/24 03:55:18;;;;;;;5.38;2.25;;;;;;;15.93;97.77;100065.41;10377161;28;20064;-76
2022/10/24 04:00:19;;;;;;;8.02;2.22;;;;;;;15.89;94.57;100042.44;10378430;28;20040;-76
2022/10/24 04:05:19;;;;;;;9.43;2.13;;;;;;;15.90;94.56;100041.34;10361643;28;20038;-75
2022/10/24 04:10:20;;;;;;;7.35;2.38;;;;;;;15.93;93.68;100049.03;10377876;28;20068;-76
2022/10/24 04:15:20;;;;;;;13.80;3.10;;;;;;;15.97;94.16;100043.88;10376993;28;20057;-76
2022/10/24 04:20:22;;;;;;;7.05;2.40;;;;;;;15.91;93.47;100066.75;10378476;28;20124;-77
2022/10/24 04:25:22;;;;;;;6.43;1.65;;;;;;;15.92;95.46;100061.03;10377085;28;20421;-77
2022/10/24 04:30:22;;;;;;;8.15;2.33;;;;;;;15.92;95.38;100047.38;10377675;28;20093;-78
2022/10/24 04:35:24;;;;;;;8.18;2.47;;;;;;;15.92;95.67;100046.53;10377536;28;20116;-76
2022/10/24 04:40:25;;;;;;;8.23;2.47;;;;;;;15.89;93.93;100027.94;10360626;28;20026;-78
2022/10/24 04:45:25;;;;;;;13.20;2.88;;;;;;;15.96;94.89;100026.69;10375991;28;20041;-79
2022/10/24 04:50:25;;;;;;;5.88;2.67;;;;;;;15.98;92.93;100034.59;10375818;28;20034;-79
2022/10/24 04:55:26;;;;;;;5.65;2.38;;;;;;;16.08;94.85;100025.69;10376217;28;20045;-79
2022/10/24 05:00:26;;;;;;;1.83;1.67;;;;;;;16.00;93.38;100025.06;10377046;28;20121;-82
2022/10/24 05:05:27;;;;;;;7.90;1.23;;;;;;;15.94;93.05;100028.81;10375471;28;20042;-78
2022/10/24 05:10:27;;;;;;;5.75;1.83;;;;;;;15.93;91.52;100029.09;10374205;28;20037;-79
2022/10/24 05:15:30;;;;;;;6.65;1.77;;;;;;;15.89;92.77;100030.66;10374189;28;20147;-78
2022/10/24 05:20:31;;;;;;;3.65;1.77;;;;;;;15.68;93.27;100033.13;10375675;28;20057;-79
2022/10/24 05:25:31;;;;;;;5.38;1.75;;;;;;;15.53;94.15;100022.78;10375961;28;20038;-77
2022/10/24 05:30:32;;;;;;;8.68;1.80;;;;;;;15.48;94.81;100046.47;10377623;28;20034;-77
2022/10/24 05:35:32;;;;;;;1.65;1.55;;;;;;;15.45;94.96;100044.25;10375960;28;20040;-79
2022/10/24 05:40:32;;;;;;;3.92;1.73;;;;;;;15.45;95.69;100036.88;10375232;28;20149;-78
2022/10/24 05:45:33;;;;;;;7.25;2.35;;;;;;;15.60;95.74;100038.97;10374470;28;20045;-78
2022/10/24 05:50:34;;;;;;;5.68;2.72;;;;;;;15.69;95.59;100048.44;10374228;28;20032;-78
2022/10/24 05:55:35;;;;;;;5.72;1.55;;;;;;;15.71;95.23;100035.38;10358855;28;20493;-78
2022/10/24 06:00:35;;;;;;;6.90;2.78;;;;;;;15.69;94.66;100042.16;10359403;28;20030;-78
2022/10/24 06:05:35;;;;;;;4.43;3.03;;;;;;;15.70;95.18;100055.56;10374223;28;20417;-77
2022/10/24 06:10:36;;;;;;;10.93;1.70;;;;;;;15.66;95.51;100031.69;10374863;28;20421;-78
2022/10/24 06:15:36;;;;;;;5.78;2.10;;;;;;;15.75;94.95;100047.41;10374362;28;20045;-78
2022/10/24 06:20:37;;;;;;;8.02;1.63;;;;;;;15.71;94.97;100083.69;10381833;28;20061;-77
2022/10/24 06:25:40;;;;;;;4.13;2.45;;;;;;;15.51;98.20;100111.47;10382600;28;20077;-78
2022/10/24 06:30:41;;;;;;;2.45;2.25;;;;;;;14.67;100.00;100103.19;10381278;28;20048;-79
2022/10/24 06:35:42;;;;;;;10.00;3.00;;;;;;;14.54;100.00;100107.88;10380406;28;20049;-79
2022/10/24 06:40:43;;;;;;;5.78;2.33;;;;;;;14.50;100.00;100103.94;10380795;28;20088;-78
2022/10/24 06:45:43;;;;;;;1.55;1.45;;;;;;;14.58;100.00;100100.88;10381019;28;20069;-78
2022/10/24 06:50:44;;;;;;;5.32;1.70;;;;;;;14.70;100.00;100133.50;10380457;28;20033;-78
2022/10/24 06:55:44;;;;;;;3.83;2.28;;;;;;;14.77;100.00;100134.22;10379365;28;20045;-77
2022/10/24 07:00:44;;;;;;;7.90;2.65;;;;;;;14.84;100.00;100148.50;10379745;28;20112;-79
2022/10/24 07:05:47;;;;;;;9.40;3.28;;;;;;;14.95;100.00;100160.41;10381981;28;20026;-78
2022/10/24 07:10:49;;;;;;;5.72;2.35;;;;;;;15.02;100.00;100169.28;10364283;28;20038;-79
2022/10/24 07:15:53;;;;;;;7.40;3.15;;;;;;;14.85;100.00;100195.69;10348212;28;20034;-79
2022/10/24 07:20:53;;;;;;;8.00;3.35;;;;;;;14.88;100.00;100206.09;10380654;28;20058;-79
2022/10/24 07:25:54;;;;;;;2.35;1.80;;;;;;;14.96;100.00;100200.22;10381759;28;20046;-79
2022/10/24 07:30:57;;;;;;;3.65;1.80;;;;;;;15.02;100.00;100221.06;10381246;28;20049;-79
2022/10/24 07:35:57;;;;;;;3.10;1.48;;;;;;;15.02;100.00;100226.53;10379641;28;20049;-78
2022/10/24 07:41:01;;;;;;;5.85;1.70;;;;;;;15.22;100.00;100238.91;10362954;28;20034;-78
2022/10/24 07:46:09;;;;;;;9.68;1.92;;;;;;;15.18;100.00;100233.09;10363461;28;20037;-78
2022/10/24 07:51:11;;;;;;;20.63;2.63;;;;;;;15.81;100.00;100256.63;10379052;28;20048;-78
2022/10/24 07:56:15;;;;;;;7.82;1.85;;;;;;;16.03;99.03;100250.41;10378636;28;20462;-78
2022/10/24 08:01:17;;;;;;;3.15;1.35;;;;;;;15.83;99.43;100261.03;10379764;28;20034;-78
2022/10/24 08:06:27;;;;;;;8.18;2.28;;;;;;;15.76;99.37;100275.66;10382525;28;20038;-78
2022/10/24 08:11:29;;;;;;;11.90;2.15;;;;;;;15.65;100.00;100271.06;10380335;28;20030;-78
2022/10/24 08:16:29;;;;;;;6.68;1.60;;;;;;;15.50;100.00;100274.34;10360260;28;20030;-78
2022/10/24 08:21:30;;;;;;;10.70;2.70;;;;;;;15.38;100.00;100298.16;10378782;28;20050;-78
2022/10/24 08:26:31;;;;;;;8.57;2.08;;;;;;;15.27;100.00;100305.28;10346108;28;20049;-78
2022/10/24 08:31:31;;;;;;;3.38;2.20;;;;;;;15.19;100.00;100308.41;10359770;28;20057;-76
2022/10/24 08:36:33;;;;;;;5.85;2.55;;;;;;;14.89;100.00;100309.44;10358900;28;20084;-78
2022/10/24 08:41:38;;;;;;;3.25;1.52;;;;;;;14.71;100.00;100327.81;10376445;28;20117;-77
2022/10/24 08:46:50;;;;;;;5.60;1.60;;;;;;;14.80;100.00;100327.22;10344091;28;20030;-77
2022/10/24 08:51:57;;;;;;;8.98;2.08;;;;;;;15.23;100.00;100336.03;10360080;28;20087;-78
2022/10/24 08:56:58;;;;;;;11.45;1.67;;;;;;;15.04;100.00;100346.28;10375695;28;20472;-77
2022/10/24 09:02:01;;;;;;;6.82;2.28;;;;;;;15.85;100.00;100355.25;10376939;28;20060;-78
2022/10/24 09:07:02;;;;;;;8.95;2.58;;;;;;;15.75;100.00;100349.59;10358507;28;20034;-77
2022/10/24 09:12:16;;;;;;;3.67;2.15;;;;;;;16.17;100.00;100357.44;10358633;28;20030;-78
2022/10/24 09:17:27;;;;;;;5.18;1.85;;;;;;;16.72;97.39;100368.44;10343883;28;20508;-78
2022/10/24 09:22:31;;;;;;;4.57;2.08;;;;;;;16.53;96.76;100367.03;10375622;28;20053;-77
2022/10/24 09:27:35;;;;;;;15.70;2.90;;;;;;;16.04;99.60;100386.72;10375438;28;20038;-78
2022/10/24 09:32:35;;;;;;;3.67;1.92;;;;;;;17.01;96.74;100394.84;10379275;28;20069;-77
2022/10/24 09:37:47;;;;;;;4.35;2.38;;;;;;;17.11;95.09;100362.97;10375611;28;20534;-78
2022/10/24 09:43:18;;;;;;;10.13;2.45;;;;;;;16.83;96.93;100409.63;10373079;28;20025;-77
2022/10/24 09:48:48;;;;;;;5.35;2.50;;;;;;;17.13;97.51;100409.22;10374289;28;20053;-77
2022/10/24 09:54:02;;;;;;;6.32;2.10;;;;;;;17.78;91.87;100415.81;10366791;28;20044;-77
2022/10/24 09:59:30;;;;;;;8.57;2.75;;;;;;;17.84;92.69;100423.81;10384695;28;20029;-78
2022/10/24 10:04:31;;;;;;;2.58;2.33;;;;;;;18.27;89.88;100430.25;10381772;28;20389;-78
2022/10/24 10:09:33;;;;;;;20.52;2.20;;;;;;;17.64;89.90;100431.75;10381452;28;20037;-77
2022/10/24 10:14:34;;;;;;;7.72;2.30;;;;;;;17.10;93.69;100439.81;10381172;28;20037;-78
2022/10/24 10:19:36;;;;;;;7.15;2.13;;;;;;;17.06;94.57;100433.19;10364081;28;20505;-77
2022/10/24 10:24:38;;;;;;;7.65;1.92;;;;;;;16.65;95.36;100454.41;10364811;28;20053;-78
2022/10/24 10:29:38;;;;;;;5.40;2.95;;;;;;;16.20;98.52;100474.41;10383205;28;20038;-77
2022/10/24 10:34:41;;;;;;;9.50;2.92;;;;;;;15.95;100.00;100480.22;10385917;28;20042;-77
2022/10/24 10:40:00;;;;;;;3.35;2.10;;;;;;;15.83;100.00;100479.44;10364693;28;20480;-78
2022/10/24 10:45:24;;;;;;;8.13;2.95;;;;;;;16.11;100.00;100505.91;10381120;28;20493;-77
2022/10/24 10:51:06;;;;;;;3.92;2.22;;;;;;;15.83;100.00;100507.56;10379900;28;20057;-77
2022/10/24 10:56:29;;;;;;;8.45;2.50;;;;;;;15.86;100.00;100520.75;10349256;28;20077;-78
2022/10/24 11:01:44;;;;;;;1.40;1.40;;;;;;;16.05;100.00;100532.31;10379640;28;20038;-77
2022/10/24 11:06:59;;;;;;;3.38;1.85;;;;;;;16.25;100.00;100526.41;10379194;28;20484;-77
2022/10/24 11:12:10;;;;;;;4.78;2.13;;;;;;;16.03;100.00;100521.63;10380654;28;20041;-77
2022/10/24 11:17:18;;;;;;;9.35;1.67;;;;;;;16.39;100.00;100522.31;10377763;28;20041;-77
2022/10/24 11:22:28;;;;;;;3.17;2.17;;;;;;;16.25;100.00;100523.69;10380935;28;20045;-76
2022/10/24 11:27:35;;;;;;;4.65;2.00;;;;;;;16.03;100.00;100529.81;10363253;28;20454;-77
2022/10/24 11:32:37;;;;;;;;;;;;;;;15.54;100.00;100534.78;10379316;28;20033;-77
2022/10/24 11:37:39;;;;;;;8.88;1.50;;;;;;;15.36;100.00;100540.38;10394969;28;19919;-77
2022/10/24 11:42:41;;;;;;;3.58;2.30;;;;;;;15.45;100.00;100546.31;10378548;28;20061;-76
2022/10/24 11:47:47;;;;;;;4.20;1.60;;;;;;;15.70;100.00;100549.63;10378362;28;20034;-77
2022/10/24 11:52:57;;;;;;;1.53;1.43;;;;;;;16.52;100.00;100554.78;10377636;28;20030;-76
2022/10/24 11:57:58;;;;;;;2.35;2.15;;;;;;;16.66;100.00;100560.81;10361096;28;20036;-77
2022/10/24 12:03:10;;;;;;;6.13;2.78;;;;;;;16.47;100.00;100568.38;10361809;28;20386;-76
2022/10/24 12:08:28;;;;;;;2.35;2.15;;;;;;;16.07;100.00;100559.38;10377827;28;20029;-77
2022/10/24 12:13:56;;;;;;;4.68;2.40;;;;;;;15.76;100.00;100562.31;10375824;28;20060;-77
2022/10/24 12:19:02;;;;;;;11.95;2.65;;;;;;;15.65;100.00;100562.28;10376498;28;20053;-77
2022/10/24 12:24:02;;;;;;;5.38;1.48;;;;;;;15.42;100.00;100547.59;10359028;28;20125;-77
2022/10/24 12:29:04;;;;;;;1.27;1.05;;;;;;;15.10;100.00;100567.03;10376700;28;20038;-77
2022/10/24 12:34:21;;;;;;;9.63;1.17;;;;;;;14.99;100.00;100575.19;10377409;28;20082;-77
2022/10/24 12:39:32;;;;;;;3.88;2.10;;;;;;;14.81;100.00;100576.13;10377310;28;20033;-77
2022/10/24 12:44:32;;;;;;;4.97;1.50;;;;;;;14.59;100.00;100584.00;10374433;28;20088;-78
2022/10/24 12:49:33;;;;;;;1.60;1.43;;;;;;;14.38;100.00;100588.84;10376098;28;20045;-80
2022/10/24 12:54:37;;;;;;;3.28;1.92;;;;;;;14.22;100.00;100594.94;10374993;28;20275;-78
2022/10/24 12:59:51;;;;;;;8.27;2.15;;;;;;;14.24;100.00;100605.63;10381181;28;20041;-91
2022/10/24 13:04:54;;;;;;;3.30;3.03;;;;;;;14.17;100.00;100597.53;10361820;28;20053;-84
2022/10/24 13:10:24;;;;;;;6.18;2.50;;;;;;;14.04;100.00;100592.22;10376054;28;20473;-84
2022/10/24 13:15:40;;;;;;;5.00;2.47;;;;;;;14.13;100.00;100593.56;10375180;28;20062;-86
2022/10/24 13:20:45;;;;;;;0.50;0.50;;;;;;;14.30;100.00;100585.63;10376641;28;20378;-86
2022/10/24 13:25:45;;;;;;;1.13;1.13;;;;;;;14.28;100.00;100585.84;10358419;28;20052;-85
2022/10/24 13:30:46;;;;;;;1.45;1.35;;;;;;;14.31;100.00;100587.28;10363509;28;20045;-89
2022/10/24 13:35:47;;;;;;;0.60;0.60;;;;;;;14.54;100.00;100589.31;10378728;28;20110;-85
2022/10/24 13:40:47;;;;;;;0.40;0.40;;;;;;;14.75;100.00;100588.78;10376434;28;20072;-83
2022/10/24 13:45:50;;;;;;;0.60;0.60;;;;;;;14.93;100.00;100579.69;10374113;28;20026;-84
2022/10/24 13:51:21;;;;;;;0.45;0.45;;;;;;;15.02;100.00;100591.91;10377121;28;20111;-83
2022/10/24 13:56:21;;;;;;;0.80;0.80;;;;;;;15.27;100.00;100597.16;10374376;28;20033;-84
2022/10/24 14:01:24;;;;;;;0.40;0.40;;;;;;;15.31;100.00;100609.25;10376801;28;20417;-84
2022/10/24 14:06:28;;;;;;;0.40;0.40;;;;;;;15.54;100.00;100603.00;10358460;28;20084;-83
2022/10/24 14:11:29;;;;;;;0.50;0.50;;;;;;;15.53;100.00;100597.78;10373580;28;20030;-83
2022/10/24 14:16:31;;;;;;;0.40;0.40;;;;;;;15.36;100.00;100619.50;10356430;28;20388;-83
2022/10/24 14:21:38;;;;;;;0.40;0.40;;;;;;;15.31;100.00;100622.09;10374212;28;20146;-82
2022/10/24 14:26:39;;;;;;;0.50;0.50;;;;;;;15.37;100.00;100621.13;10346415;28;20037;-83
2022/10/24 14:31:39;;;;;;;0.50;0.50;;;;;;;15.39;100.00;100624.47;10375917;28;20042;-84
2022/10/24 14:36:39;;;;;;;0.50;0.50;;;;;;;15.30;100.00;100629.44;10374017;28;20033;-83
2022/10/24 14:41:40;;;;;;;1.30;1.20;;;;;;;15.11;100.00;100625.16;10380698;28;20033;-84
2022/10/24 14:46:41;;;;;;;1.27;1.27;;;;;;;15.19;100.00;100633.00;10381895;28;20488;-84
2022/10/24 14:51:41;;;;;;;1.70;1.60;;;;;;;15.48;100.00;100633.16;10381232;28;20045;-84
2022/10/24 14:56:42;;;;;;;0.43;0.43;;;;;;;15.75;100.00;100631.63;10381114;28;20037;-84
2022/10/24 15:01:52;;;;;;;6.80;0.75;;;;;;;15.69;100.00;100643.50;10381033;28;20034;-84
2022/10/24 15:06:54;;;;;;;2.72;2.15;;;;;;;15.46;100.00;100651.66;10381699;28;20026;-85
2022/10/24 15:12:01;;;;;;;0.35;0.35;;;;;;;15.32;100.00;100640.13;10369907;28;20034;-86
2022/10/24 15:17:02;;;;;;;;;;;;;;;15.32;100.00;100642.84;10394290;28;20032;-85
2022/10/24 15:22:02;;;;;;;9.40;2.60;;;;;;;15.38;100.00;100639.19;10383951;28;19918;-85
2022/10/24 15:27:10;;;;;;;1.17;1.17;;;;;;;15.20;100.00;100640.09;10382016;28;20037;-85
2022/10/24 15:32:10;;;;;;;0.50;0.50;;;;;;;14.93;100.00;100652.47;10386068;28;20045;-84
2022/10/24 15:37:23;;;;;;;0.40;0.40;;;;;;;14.91;100.00;100658.19;10381046;28;20048;-85
2022/10/24 15:42:24;;;;;;;1.25;1.25;;;;;;;14.84;100.00;100660.16;10362425;28;20037;-84
2022/10/24 15:47:24;;;;;;;0.45;0.45;;;;;;;14.93;100.00;100672.38;10379204;28;20069;-84
2022/10/24 15:52:24;;;;;;;1.08;1.08;;;;;;;15.08;100.00;100680.16;10376951;28;20049;-84
2022/10/24 15:57:25;;;;;;;4.85;1.52;;;;;;;15.10;100.00;100688.94;10361670;28;20450;-84
2022/10/24 16:02:25;;;;;;;3.63;0.82;;;;;;;14.95;100.00;100683.91;10362360;28;20029;-84
2022/10/24 16:07:26;;;;;;;14.52;5.00;;;;;;;14.81;100.00;100685.16;10377531;28;20539;-84
2022/10/24 16:12:26;;;;;;;15.60;4.53;;;;;;;14.67;100.00;100673.59;10378257;28;20443;-83
2022/10/24 16:17:27;;;;;;;23.38;4.90;;;;;;;14.53;100.00;100683.84;10377618;28;20036;-83
2022/10/24 16:22:27;;;;;;;16.58;5.15;;;;;;;14.45;100.00;100686.84;10377640;28;20061;-83
2022/10/24 16:27:27;;;;;;;12.98;4.43;;;;;;;14.38;100.00;100697.81;10375556;28;20029;-83
2022/10/24 16:32:28;;;;;;;18.13;5.72;;;;;;;14.30;100.00;100691.84;10382041;28;20029;-82
2022/10/24 16:37:28;;;;;;;11.52;5.25;;;;;;;14.18;100.00;100700.78;10376494;28;20045;-82
2022/10/24 16:42:28;;;;;;;13.88;3.72;;;;;;;14.14;100.00;100707.75;10376490;28;20088;-82
2022/10/24 16:47:29;;;;;;;24.67;5.78;;;;;;;14.08;100.00;100714.09;10359487;28;20034;-82
2022/10/24 16:52:29;;;;;;;13.25;4.38;;;;;;;14.03;100.00;100715.81;10376878;28;20117;-81
2022/10/24 16:57:30;;;;;;;23.88;5.97;;;;;;;13.99;100.00;100709.97;10375135;28;20030;-82
2022/10/24 17:02:30;;;;;;;19.15;5.07;;;;;;;14.00;100.00;100719.81;10375014;28;20429;-82
2022/10/24 17:07:30;;;;;;;19.98;5.15;;;;;;;14.10;100.00;100731.03;10374677;28;20045;-81
2022/10/24 17:12:31;;;;;;;24.98;6.72;;;;;;;14.15;100.00;100728.44;10375041;28;20501;-82
2022/10/24 17:17:32;;;;;;;20.70;6.75;;;;;;;14.16;100.00;100730.09;10376709;28;20057;-81
2022/10/24 17:22:33;;;;;;;19.67;5.38;;;;;;;14.16;100.00;100737.44;10376486;28;20486;-80
2022/10/24 17:27:33;;;;;;;15.25;5.30;;;;;;;14.21;100.00;100750.41;10357759;28;20050;-80
2022/10/24 17:32:34;;;;;;;14.10;5.32;;;;;;;14.28;100.00;100751.16;10377283;28;20048;-81
2022/10/24 17:38:04;;;;;;;27.48;3.75;;;;;;;14.37;100.00;100767.00;10375498;28;20120;-80
2022/10/24 17:43:08;;;;;;;21.65;4.93;;;;;;;14.45;100.00;100762.28;10373366;28;20128;-81
2022/10/24 17:48:09;;;;;;;15.85;4.32;;;;;;;14.50;100.00;100766.00;10373012;28;20521;-81
2022/10/24 17:53:13;;;;;;;16.58;3.20;;;;;;;14.54;100.00;100772.69;10373021;28;20026;-80
2022/10/24 17:58:14;;;;;;;19.85;4.43;;;;;;;14.55;100.00;100768.94;10374992;28;20073;-80
2022/10/24 18:03:14;;;;;;;11.93;2.65;;;;;;;14.60;100.00;100779.13;10375575;28;20046;-80
2022/10/24 18:08:15;;;;;;;8.35;3.10;;;;;;;14.66;100.00;100775.50;10374857;28;20045;-80
2022/10/24 18:13:15;;;;;;;16.88;3.80;;;;;;;14.67;100.00;100779.06;10378242;28;20044;-79
2022/10/24 18:18:16;;;;;;;12.32;3.95;;;;;;;14.67;100.00;100785.34;10381884;28;20445;-80
2022/10/24 18:23:16;;;;;;;13.55;3.55;;;;;;;14.57;100.00;100794.03;10384172;28;20116;-80
2022/10/24 18:28:16;;;;;;;6.32;2.75;;;;;;;14.53;100.00;100802.91;10382590;28;20045;-80
2022/10/24 18:33:17;;;;;;;12.52;2.92;;;;;;;14.53;100.00;100795.56;10381044;28;20054;-79
2022/10/24 18:38:17;;;;;;;4.25;2.88;;;;;;;14.52;100.00;100807.53;10381272;28;20041;-82
2022/10/24 18:43:18;;;;;;;17.27;3.70;;;;;;;14.51;100.00;100807.75;10381539;28;20046;-80
2022/10/24 18:48:18;;;;;;;5.93;2.88;;;;;;;14.50;100.00;100797.88;10381727;28;20069;-79
2022/10/24 18:53:22;;;;;;;7.80;2.90;;;;;;;14.40;100.00;100814.75;10379884;28;20033;-79
2022/10/24 18:58:23;;;;;;;9.82;3.83;;;;;;;14.25;100.00;100817.81;10381888;28;20037;-79
2022/10/24 19:03:29;;;;;;;14.52;3.85;;;;;;;14.16;100.00;100814.53;10379444;28;20038;-79
2022/10/24 19:08:30;;;;;;;5.50;2.88;;;;;;;14.15;100.00;100814.78;10380276;28;20068;-78
2022/10/24 19:13:30;;;;;;;2.47;2.38;;;;;;;14.08;100.00;100823.00;10381488;28;20046;-78
2022/10/24 19:18:34;;;;;;;5.38;3.55;;;;;;;13.96;100.00;100827.50;10380184;28;20073;-78
2022/10/24 19:23:35;;;;;;;6.00;2.50;;;;;;;13.85;100.00;100822.78;10378910;28;20120;-79
2022/10/24 19:28:36;;;;;;;7.38;3.83;;;;;;;13.71;100.00;100822.84;10378994;28;20389;-80
2022/10/24 19:33:36;;;;;;;7.07;2.35;;;;;;;13.62;100.00;100818.72;10381055;28;20041;-83
2022/10/24 19:38:37;;;;;;;9.27;3.08;;;;;;;13.53;100.00;100813.75;10380793;28;20113;-78
2022/10/24 19:43:37;;;;;;;5.05;2.65;;;;;;;13.51;100.00;100834.94;10380256;28;20045;-78
2022/10/24 19:48:38;;;;;;;9.10;3.63;;;;;;;13.54;100.00;100832.59;10379365;28;20496;-78
2022/10/24 19:53:39;;;;;;;8.93;2.42;;;;;;;13.67;100.00;100835.25;10379025;28;20480;-83
2022/10/24 19:58:40;;;;;;;9.35;3.55;;;;;;;13.83;100.00;100835.75;10378646;28;20034;-79
2022/10/24 20:03:42;;;;;;;3.80;2.92;;;;;;;13.85;100.00;100841.84;10377872;28;20449;-82
2022/10/24 20:08:45;;;;;;;4.43;2.10;;;;;;;13.88;100.00;100844.09;10379908;28;20119;-82
2022/10/24 20:13:45;;;;;;;10.05;3.50;;;;;;;13.69;100.00;100841.31;10376847;28;20045;-81
2022/10/24 20:18:46;;;;;;;6.57;2.80;;;;;;;13.46;100.00;100836.44;10376130;28;20034;-81
2022/10/24 20:23:47;;;;;;;5.38;2.65;;;;;;;13.34;100.00;100845.50;10376052;28;20500;-78
2022/10/24 20:28:48;;;;;;;12.60;4.45;;;;;;;13.22;100.00;100851.56;10361106;28;20078;-83
2022/10/24 20:33:49;;;;;;;6.47;3.03;;;;;;;13.17;100.00;100858.69;10376825;28;20463;-81
2022/10/24 20:38:49;;;;;;;13.75;4.97;;;;;;;13.08;100.00;100854.53;10382373;28;20032;-81
2022/10/24 20:43:52;;;;;;;11.43;3.40;;;;;;;13.04;100.00;100857.69;10346463;28;20048;-82
2022/10/24 20:48:52;;;;;;;7.32;4.32;;;;;;;12.98;100.00;100865.88;10360063;28;20465;-81
2022/10/24 20:53:53;;;;;;;7.95;2.88;;;;;;;12.97;100.00;100869.66;10377646;28;20038;-78
2022/10/24 20:58:55;;;;;;;7.78;3.00;;;;;;;12.98;100.00;100871.31;10376312;28;20038;-78
2022/10/24 21:03:56;;;;;;;9.23;2.60;;;;;;;12.89;100.00;100875.31;10374805;28;20034;-79
2022/10/24 21:08:57;;;;;;;4.55;1.75;;;;;;;12.87;100.00;100885.56;10375926;28;20037;-78
2022/10/24 21:13:58;;;;;;;11.73;3.30;;;;;;;12.87;100.00;100901.88;10376159;28;20025;-78
2022/10/24 21:18:59;;;;;;;9.15;3.35;;;;;;;12.87;100.00;100902.72;10358229;28;20053;-79
2022/10/24 21:24:00;;;;;;;6.97;2.78;;;;;;;12.85;100.00;100906.69;10373908;28;20454;-79
2022/10/24 21:29:00;;;;;;;9.85;3.03;;;;;;;12.85;100.00;100909.41;10373677;28;20116;-79
2022/10/24 21:34:00;;;;;;;3.40;2.33;;;;;;;12.85;100.00;100904.81;10373371;28;20401;-79
2022/10/24 21:39:01;;;;;;;7.60;2.50;;;;;;;12.83;100.00;100909.63;10373392;28;20069;-79
2022/10/24 21:44:01;;;;;;;13.10;2.80;;;;;;;12.82;100.00;100912.53;10372878;28;20089;-78
2022/10/24 21:49:02;;;;;;;5.43;2.55;;;;;;;12.84;100.00;100921.34;10373230;28;20109;-82
2022/10/24 21:54:07;;;;;;;10.48;3.00;;;;;;;12.84;100.00;100926.78;10372692;28;20156;-79
2022/10/24 21:59:10;;;;;;;13.05;2.65;;;;;;;12.97;100.00;100932.19;10373393;28;20029;-80
2022/10/24 22:04:12;;;;;;;5.78;2.45;;;;;;;13.08;100.00;100942.41;10372388;28;20130;-79
2022/10/24 22:09:16;;;;;;;5.00;1.88;;;;;;;13.03;100.00;100950.34;10374393;28;20033;-80
2022/10/24 22:14:16;;;;;;;1.38;1.27;;;;;;;12.97;100.00;100948.47;10372238;28;20409;-79
2022/10/24 22:19:17;;;;;;;5.45;1.98;;;;;;;12.97;100.00;100951.19;10334208;28;1087416;-80
2022/10/24 22:24:19;;;;;;;7.88;2.70;;;;;;;13.06;100.00;100955.38;10374437;28;20046;-80
2022/10/24 22:29:21;;;;;;;2.75;1.52;;;;;;;13.33;100.00;100960.75;10357015;28;20037;-80
2022/10/24 22:34:22;;;;;;;5.45;2.22;;;;;;;13.51;100.00;100963.63;10375429;28;20042;-80
2022/10/24 22:39:23;;;;;;;5.07;1.77;;;;;;;13.64;100.00;100974.44;10356629;28;20121;-79
2022/10/24 22:44:24;;;;;;;9.43;2.40;;;;;;;13.72;100.00;100966.06;10374437;28;20136;-80
2022/10/24 22:49:45;;;;;;;4.65;2.03;;;;;;;13.82;100.00;100975.66;10373478;28;20077;-80
2022/10/24 22:54:46;;;;;;;5.07;2.88;;;;;;;13.92;100.00;100976.84;10374029;28;20034;-80
2022/10/24 22:59:47;;;;;;;13.27;2.58;;;;;;;13.96;100.00;100988.94;10377142;28;20046;-79